Time;durP1;ratioP1;P1;durP2;ratioP2;P2;SDS_P1;SDS_P2;PMS_P1;PMS_P2;Temp;Humidity;BMP_temperature;BMP_pressure;BME280_temperature;BME280_humidity;BME280_pressure;Samples;Min_cycle;Max_cycle;Signal;HPM_P1;HPM_P2
2022/06/02 00:02:12;;;;;;;1.30;1.00;;;;;;;16.12;47.72;98240.72;5137718;27;20186;-68
2022/06/02 00:05:07;;;;;;;1.40;0.87;;;;;;;16.08;47.46;98242.28;5085379;27;20198;-68
2022/06/02 00:07:43;;;;;;;2.40;0.90;;;;;;;16.07;47.67;98250.56;5137491;27;20222;-68
2022/06/02 00:10:18;;;;;;;1.47;1.00;;;;;;;16.13;47.71;98247.69;5137524;27;20215;-68
2022/06/02 00:12:59;;;;;;;1.70;1.20;;;;;;;16.01;48.46;98249.66;5137494;27;20182;-68
2022/06/02 00:15:33;;;;;;;1.70;0.90;;;;;;;16.03;48.80;98255.63;5137059;27;20665;-68
2022/06/02 00:18:23;;;;;;;1.47;0.93;;;;;;;16.04;48.14;98248.38;5120008;27;20611;-68
2022/06/02 00:21:17;;;;;;;2.40;0.90;;;;;;;15.91;48.24;98249.53;5137039;27;20187;-68
2022/06/02 00:24:12;;;;;;;1.40;1.07;;;;;;;15.79;49.41;98254.19;5136964;27;20656;-68
2022/06/02 00:26:57;;;;;;;1.10;0.90;;;;;;;15.91;48.99;98251.41;5119589;27;20199;-68
2022/06/02 00:29:32;;;;;;;3.53;1.00;;;;;;;15.90;49.21;98247.09;5137125;27;20222;-68
2022/06/02 00:32:26;;;;;;;1.97;1.00;;;;;;;15.86;49.17;98251.34;5137147;27;20197;-69
2022/06/02 00:35:27;;;;;;;0.80;0.80;;;;;;;15.82;49.05;98251.03;5137049;27;20226;-68
2022/06/02 00:38:01;;;;;;;1.10;1.00;;;;;;;15.85;49.22;98250.53;5063585;27;20227;-68
2022/06/02 00:40:29;;;;;;;3.17;1.20;;;;;;;15.69;49.42;98248.69;5136962;27;20194;-68
2022/06/02 00:42:58;;;;;;;2.67;0.90;;;;;;;15.70;49.38;98244.16;5136752;27;20206;-69
2022/06/02 00:45:25;;;;;;;2.70;0.90;;;;;;;15.68;50.42;98246.25;5136512;27;20661;-68
2022/06/02 00:48:16;;;;;;;1.70;1.10;;;;;;;15.85;49.22;98249.72;5136441;27;20777;-68
2022/06/02 00:51:06;;;;;;;1.50;1.20;;;;;;;15.70;49.87;98244.94;5136320;27;20193;-68
2022/06/02 00:53:38;;;;;;;2.43;1.20;;;;;;;15.69;49.74;98250.59;5136307;27;20211;-68
2022/06/02 01:00:00;;;;;;;1.17;0.90;;;;;;;15.65;49.88;98242.19;5136361;27;20255;-68
2022/06/02 01:02:28;;;;;;;1.57;1.13;;;;;;;15.63;49.74;98248.88;5085309;27;20683;-68
2022/06/02 01:04:59;;;;;;;0.80;0.80;;;;;;;15.44;50.56;98251.03;5136164;27;20289;-68
2022/06/02 01:07:50;;;;;;;1.53;1.00;;;;;;;15.58;50.28;98262.19;5136356;27;20191;-68
2022/06/02 01:10:27;;;;;;;3.70;1.10;;;;;;;15.41;51.22;98259.53;5136342;27;20202;-69
2022/06/02 01:13:02;;;;;;;2.70;1.07;;;;;;;15.48;50.53;98259.38;5118165;27;20197;-68
2022/06/02 01:15:35;;;;;;;2.27;1.10;;;;;;;15.45;50.36;98258.00;5118023;27;20232;-68
2022/06/02 01:18:24;;;;;;;2.80;1.20;;;;;;;15.42;51.05;98266.50;5136155;27;20222;-68
2022/06/02 01:21:10;;;;;;;1.50;1.00;;;;;;;15.33;52.10;98265.25;5136195;27;20191;-69
2022/06/02 01:23:59;;;;;;;1.23;1.03;;;;;;;15.41;50.82;98270.25;5136583;27;20218;-68
2022/06/02 01:26:31;;;;;;;2.57;0.90;;;;;;;15.39;51.12;98277.72;5136049;27;20197;-69
2022/06/02 01:28:57;;;;;;;1.13;0.80;;;;;;;15.31;52.31;98264.72;5135956;27;20321;-68
2022/06/02 01:31:42;;;;;;;2.90;1.20;;;;;;;15.41;51.13;98272.94;5135596;27;20210;-68
2022/06/02 01:34:29;;;;;;;2.57;1.13;;;;;;;15.19;51.55;98273.88;5135574;27;20546;-68
2022/06/02 01:37:27;;;;;;;1.60;0.97;;;;;;;15.38;51.51;98273.41;5135860;27;20187;-68
2022/06/02 01:39:56;;;;;;;2.70;1.07;;;;;;;15.18;51.91;98275.75;5135484;27;20193;-68
2022/06/02 01:42:41;;;;;;;1.30;1.20;;;;;;;15.20;52.00;98270.94;5135677;27;20202;-68
2022/06/02 01:45:22;;;;;;;1.30;1.00;;;;;;;15.16;51.74;98274.34;5135686;27;20179;-68
2022/06/02 01:47:58;;;;;;;3.87;1.00;;;;;;;15.07;51.91;98279.28;5135232;27;20735;-68
2022/06/02 01:50:50;;;;;;;1.13;0.90;;;;;;;15.03;52.72;98282.69;5135543;27;20198;-68
2022/06/02 01:53:38;;;;;;;2.60;1.10;;;;;;;15.15;51.89;98284.25;5135090;27;20673;-67
2022/06/02 01:56:19;;;;;;;1.70;0.93;;;;;;;14.93;52.47;98282.53;5135115;27;20211;-68
2022/06/02 01:58:59;;;;;;;2.73;1.03;;;;;;;14.87;53.07;98286.97;5134996;27;20697;-69
2022/06/02 02:01:59;;;;;;;1.27;0.87;;;;;;;14.84;53.02;98289.31;5135394;27;20197;-69
2022/06/02 02:05:13;;;;;;;2.60;1.00;;;;;;;14.93;52.73;98286.00;5134473;27;20565;-68
2022/06/02 02:07:59;;;;;;;1.47;1.10;;;;;;;15.02;52.72;98289.91;5124605;27;20226;-68
2022/06/02 02:10:49;;;;;;;1.93;0.97;;;;;;;14.94;52.81;98290.31;5116995;27;20190;-68
2022/06/02 02:13:40;;;;;;;0.97;0.97;;;;;;;14.98;52.87;98293.31;5135309;27;20665;-69
2022/06/02 02:16:36;;;;;;;1.63;1.00;;;;;;;14.90;52.94;98293.69;5135594;27;20206;-68
2022/06/02 02:19:45;;;;;;;1.10;1.00;;;;;;;14.88;53.18;98301.19;5130000;27;20232;-69
2022/06/02 02:22:25;;;;;;;2.33;0.90;;;;;;;14.62;53.40;98309.78;5135047;27;20190;-68
2022/06/02 02:25:03;;;;;;;1.70;1.10;;;;;;;14.73;53.62;98304.38;5116799;27;20283;-68
2022/06/02 02:28:03;;;;;;;1.23;1.00;;;;;;;14.83;53.37;98307.22;5134837;27;20211;-68
2022/06/02 02:30:50;;;;;;;0.90;0.90;;;;;;;14.61;53.89;98311.63;5135402;27;20187;-68
2022/06/02 02:33:42;;;;;;;1.27;1.10;;;;;;;14.62;54.24;98299.91;5134869;27;20194;-69
2022/06/02 02:36:27;;;;;;;3.33;0.90;;;;;;;14.70;53.85;98310.19;5116735;27;20221;-68
2022/06/02 02:39:15;;;;;;;1.80;1.13;;;;;;;14.55;54.14;98319.78;5134780;27;20254;-68
2022/06/02 02:41:47;;;;;;;1.73;0.77;;;;;;;14.60;54.00;98311.88;5135305;27;20280;-68
2022/06/02 02:44:25;;;;;;;1.13;1.00;;;;;;;14.59;54.37;98313.75;5134714;27;20195;-68
2022/06/02 02:47:07;;;;;;;1.63;1.10;;;;;;;14.60;54.55;98318.03;5116470;27;20190;-68
2022/06/02 02:50:02;;;;;;;1.00;0.80;;;;;;;14.65;53.92;98323.47;5134446;27;20225;-68
2022/06/02 02:52:37;;;;;;;3.20;1.00;;;;;;;14.58;54.83;98317.47;5134644;27;20263;-68
2022/06/02 02:55:11;;;;;;;3.73;1.10;;;;;;;14.59;54.59;98316.41;5134548;28;20210;-68
2022/06/02 02:57:51;;;;;;;1.70;1.17;;;;;;;14.55;54.81;98312.59;5134497;28;20229;-69
2022/06/02 03:00:24;;;;;;;1.93;1.10;;;;;;;14.62;54.63;98302.56;5134154;28;20190;-68
2022/06/02 03:03:16;;;;;;;2.00;1.00;;;;;;;14.57;55.04;98312.34;5134618;28;20182;-69
2022/06/02 03:06:20;;;;;;;1.23;1.00;;;;;;;14.51;54.71;98306.09;5134433;28;20274;-68
2022/06/02 03:09:10;;;;;;;1.67;1.10;;;;;;;14.42;55.23;98312.84;5134469;28;20689;-68
2022/06/02 03:12:02;;;;;;;1.40;1.00;;;;;;;14.40;55.29;98312.28;5134312;28;20190;-68
2022/06/02 03:14:39;;;;;;;1.17;1.00;;;;;;;14.42;54.83;98314.72;5122803;27;20305;-68
2022/06/02 03:17:32;;;;;;;1.00;1.00;;;;;;;14.46;54.46;98316.69;5138236;27;20234;-68
2022/06/02 03:20:11;;;;;;;1.67;0.90;;;;;;;14.44;54.37;98316.13;5092463;27;20213;-68
2022/06/02 03:23:06;;;;;;;2.93;1.30;;;;;;;14.49;54.03;98318.91;5138431;27;20191;-68
2022/06/02 03:25:39;;;;;;;2.87;1.27;;;;;;;14.45;54.60;98323.09;5138398;27;20247;-68
2022/06/02 03:28:24;;;;;;;2.23;1.17;;;;;;;14.37;54.53;98322.63;5137907;27;20723;-69
2022/06/02 03:31:16;;;;;;;2.60;1.27;;;;;;;14.46;54.50;98324.72;5137806;27;20278;-68
2022/06/02 03:33:43;;;;;;;1.10;1.00;;;;;;;14.36;54.54;98327.19;5137884;27;20190;-68
2022/06/02 03:36:30;;;;;;;1.73;1.10;;;;;;;14.50;54.05;98319.69;5137583;27;20313;-68
2022/06/02 03:39:06;;;;;;;2.13;1.23;;;;;;;14.47;54.17;98326.31;5137478;27;20226;-68
2022/06/02 03:42:06;;;;;;;1.30;1.10;;;;;;;14.37;54.96;98328.81;5137507;27;20212;-69
2022/06/02 03:44:40;;;;;;;1.73;1.00;;;;;;;14.42;54.66;98328.09;5137818;27;20187;-68
2022/06/02 03:47:27;;;;;;;1.30;1.20;;;;;;;14.38;54.93;98333.09;5137712;27;20187;-68
2022/06/02 03:50:15;;;;;;;2.50;1.00;;;;;;;14.23;55.95;98334.63;5137500;27;20187;-68
2022/06/02 03:52:51;;;;;;;2.00;1.30;;;;;;;14.30;54.48;98341.47;5137644;27;20223;-68
2022/06/02 03:55:26;;;;;;;1.80;1.20;;;;;;;14.26;56.05;98340.34;5137369;27;20211;-68
2022/06/02 03:58:01;;;;;;;1.90;1.03;;;;;;;14.28;56.69;98342.75;5138094;27;20229;-68
2022/06/02 04:00:44;;;;;;;1.30;1.10;;;;;;;14.38;55.70;98343.78;5137193;27;20711;-69
2022/06/02 04:03:17;;;;;;;1.10;1.00;;;;;;;14.44;55.57;98342.88;5137180;27;20182;-69
2022/06/02 04:05:46;;;;;;;2.67;1.20;;;;;;;14.40;55.21;98333.69;5137101;27;20187;-68
2022/06/02 04:08:42;;;;;;;1.93;1.47;;;;;;;14.53;55.01;98336.09;5137158;27;20261;-68
2022/06/02 04:11:17;;;;;;;2.00;1.30;;;;;;;14.47;55.33;98339.69;5137184;27;20186;-69
2022/06/02 04:14:03;;;;;;;1.90;1.67;;;;;;;14.32;56.09;98341.25;5137320;27;20193;-69
2022/06/02 04:16:51;;;;;;;1.77;1.20;;;;;;;14.21;56.51;98337.56;5137177;27;20217;-68
2022/06/02 04:23:12;;;;;;;2.77;1.23;;;;;;;14.28;56.03;98343.59;5136821;27;20559;-68
2022/06/02 04:25:38;;;;;;;3.13;1.30;;;;;;;14.33;54.91;98341.03;5136128;27;20179;-68
2022/06/02 04:28:38;;;;;;;3.83;1.30;;;;;;;14.43;54.58;98351.13;5136749;27;20227;-68
2022/06/02 04:31:42;;;;;;;1.73;1.20;;;;;;;14.47;54.15;98352.28;5137009;27;20197;-68
2022/06/02 04:34:21;;;;;;;2.17;1.33;;;;;;;14.45;53.78;98349.84;5136658;27;20266;-68
2022/06/02 04:37:14;;;;;;;1.93;1.47;;;;;;;14.44;53.64;98350.91;5136604;27;20229;-68
2022/06/02 04:39:46;;;;;;;2.00;1.43;;;;;;;14.48;53.87;98353.91;5136328;27;20190;-68
2022/06/02 04:42:27;;;;;;;2.57;1.10;;;;;;;14.46;54.07;98348.78;5136221;27;20213;-68
2022/06/02 04:45:01;;;;;;;4.67;1.30;;;;;;;14.53;55.16;98354.84;5136638;27;20602;-69
2022/06/02 04:47:43;;;;;;;3.47;1.27;;;;;;;14.70;54.42;98357.56;5135988;27;20191;-68
2022/06/02 04:50:25;;;;;;;1.30;1.00;;;;;;;14.50;55.23;98357.16;5136155;27;20641;-69
2022/06/02 04:53:14;;;;;;;3.63;1.50;;;;;;;14.62;54.40;98358.75;5135723;27;20190;-68
2022/06/02 04:56:17;;;;;;;1.93;1.33;;;;;;;14.65;55.41;98362.81;5135884;27;20306;-69
2022/06/02 04:58:59;;;;;;;3.93;1.20;;;;;;;14.74;55.04;98359.53;5135573;27;20222;-69
2022/06/02 05:01:35;;;;;;;1.43;1.20;;;;;;;14.77;55.24;98355.56;5135703;27;20205;-69
2022/06/02 05:04:23;;;;;;;2.60;1.67;;;;;;;15.23;53.25;98350.81;5135966;27;20187;-69
2022/06/02 05:06:52;;;;;;;1.87;1.43;;;;;;;15.90;52.02;98359.72;5135832;27;20211;-69
2022/06/02 05:09:45;;;;;;;1.50;1.37;;;;;;;16.22;50.53;98352.69;5135423;27;20313;-69
2022/06/02 05:12:39;;;;;;;2.07;1.37;;;;;;;15.70;52.01;98356.75;5136410;27;20187;-69
2022/06/02 05:15:49;;;;;;;2.07;1.30;;;;;;;16.13;50.50;98360.34;5135404;27;20625;-69
2022/06/02 05:18:28;;;;;;;3.23;1.97;;;;;;;16.49;50.34;98367.03;5134942;27;20316;-69
2022/06/02 05:21:34;;;;;;;2.67;1.50;;;;;;;16.39;49.66;98365.00;5134692;27;20186;-69
2022/06/02 05:24:30;;;;;;;3.30;1.60;;;;;;;17.25;48.23;98364.16;5117670;27;20251;-69
2022/06/02 05:27:38;;;;;;;2.13;1.10;;;;;;;17.27;46.85;98368.22;5135015;27;20214;-69
2022/06/02 05:30:26;;;;;;;2.93;1.30;;;;;;;16.67;48.70;98370.22;5078369;27;20240;-69
2022/06/02 05:32:52;;;;;;;2.33;1.40;;;;;;;16.40;50.25;98380.06;5135021;27;20183;-69
2022/06/02 05:35:40;;;;;;;2.70;1.47;;;;;;;16.42;49.28;98383.31;5135095;27;20210;-69
2022/06/02 05:38:16;;;;;;;2.90;1.30;;;;;;;15.95;50.28;98376.72;5134213;27;20218;-69
2022/06/02 05:40:58;;;;;;;1.93;1.30;;;;;;;16.13;50.25;98371.09;5135318;27;20187;-69
2022/06/02 05:43:37;;;;;;;2.60;1.20;;;;;;;16.24;49.55;98374.72;5134822;27;20187;-69
2022/06/02 05:46:11;;;;;;;1.20;1.10;;;;;;;15.70;50.08;98384.34;5116495;27;20183;-69
2022/06/02 05:48:42;;;;;;;1.50;1.30;;;;;;;15.82;51.03;98390.44;5134448;27;20232;-69
2022/06/02 05:51:23;;;;;;;2.10;1.47;;;;;;;16.16;50.69;98389.38;5134427;27;20190;-69
2022/06/02 05:54:09;;;;;;;3.20;1.40;;;;;;;16.29;48.80;98388.22;5116319;27;20236;-69
2022/06/02 05:57:13;;;;;;;1.97;1.30;;;;;;;15.65;48.58;98392.28;5134172;27;20708;-68
2022/06/02 06:00:25;;;;;;;1.10;1.10;;;;;;;15.85;49.72;98398.00;5133958;27;20210;-69
2022/06/02 06:03:13;;;;;;;2.67;1.60;;;;;;;15.96;49.81;98380.22;5130201;27;20202;-70
2022/06/02 06:06:06;;;;;;;1.20;1.10;;;;;;;16.26;50.30;98392.19;5134556;27;20185;-69
2022/06/02 06:08:54;;;;;;;2.77;1.43;;;;;;;16.37;49.50;98395.84;5123185;27;20222;-69
2022/06/02 06:11:39;;;;;;;1.37;1.27;;;;;;;16.58;48.29;98390.53;5134694;27;20194;-69
2022/06/02 06:14:25;;;;;;;5.20;1.53;;;;;;;16.71;49.67;98392.84;5134561;27;20190;-69
2022/06/02 06:17:19;;;;;;;3.23;1.30;;;;;;;16.94;47.32;98389.91;5134649;27;20319;-69
2022/06/02 06:20:07;;;;;;;3.63;1.67;;;;;;;16.60;48.15;98393.75;5116821;27;20193;-69
2022/06/02 06:22:43;;;;;;;3.60;1.43;;;;;;;16.56;46.87;98402.56;5133815;27;20183;-69
2022/06/02 06:25:20;;;;;;;1.63;1.50;;;;;;;16.38;48.10;98397.47;5134228;27;20541;-69
2022/06/02 06:28:14;;;;;;;4.67;1.60;;;;;;;16.46;50.30;98394.38;5134173;27;20228;-68
2022/06/02 06:31:02;;;;;;;1.50;1.40;;;;;;;16.62;47.67;98394.34;5123769;27;20221;-69
2022/06/02 06:34:02;;;;;;;4.83;1.80;;;;;;;16.58;48.58;98395.88;5134127;27;20190;-69
2022/06/02 06:36:44;;;;;;;2.10;1.27;;;;;;;16.48;48.35;98406.50;5134003;27;20238;-69
2022/06/02 06:39:24;;;;;;;3.87;1.53;;;;;;;16.87;47.96;98393.84;5115672;27;20226;-69
2022/06/02 06:42:00;;;;;;;1.87;1.50;;;;;;;16.79;49.36;98391.59;5117141;27;20186;-69
2022/06/02 06:44:39;;;;;;;3.33;1.50;;;;;;;16.81;47.85;98400.19;5133728;27;20281;-69
2022/06/02 06:47:18;;;;;;;1.50;1.40;;;;;;;16.65;48.55;98399.19;5133629;27;20212;-69
2022/06/02 06:49:58;;;;;;;2.83;1.67;;;;;;;16.76;48.15;98392.06;5134172;27;20190;-69
2022/06/02 06:52:52;;;;;;;3.93;1.57;;;;;;;16.94;48.03;98389.06;5135032;27;20264;-68
2022/06/02 06:55:55;;;;;;;2.20;1.47;;;;;;;16.68;47.55;98398.69;5134279;28;20198;-69
2022/06/02 06:58:57;;;;;;;2.77;1.53;;;;;;;16.83;48.76;98393.50;5134026;28;20222;-69
2022/06/02 07:01:30;;;;;;;2.80;1.53;;;;;;;16.88;47.71;98398.16;5133845;28;20178;-69
2022/06/02 07:04:18;;;;;;;2.63;1.60;;;;;;;16.90;48.37;98398.69;5134167;28;20574;-69
2022/06/02 07:07:16;;;;;;;2.53;1.67;;;;;;;16.98;48.39;98409.00;5133645;28;20626;-69
2022/06/02 07:09:56;;;;;;;4.50;1.50;;;;;;;17.17;48.77;98411.09;5094341;28;20315;-69
2022/06/02 07:12:52;;;;;;;2.80;1.60;;;;;;;17.16;47.72;98414.88;5133393;28;20186;-69
2022/06/02 07:15:36;;;;;;;1.50;1.37;;;;;;;17.24;47.90;98411.72;5133708;28;20266;-69
2022/06/02 07:18:03;;;;;;;2.03;1.50;;;;;;;17.50;47.04;98404.78;5133840;28;20275;-69
2022/06/02 07:20:37;;;;;;;2.83;1.50;;;;;;;17.49;47.81;98403.13;5133843;28;20573;-69
2022/06/02 07:23:38;;;;;;;2.27;1.90;;;;;;;17.44;47.33;98411.13;5133825;28;20186;-69
2022/06/02 07:26:14;;;;;;;2.30;1.50;;;;;;;17.12;48.31;98412.91;5133821;28;20190;-69
2022/06/02 07:28:58;;;;;;;4.83;1.50;;;;;;;17.44;46.98;98400.38;5133913;28;20226;-70
2022/06/02 07:31:28;;;;;;;4.83;1.90;;;;;;;17.54;46.52;98395.94;5134482;28;20194;-68
2022/06/02 07:34:16;;;;;;;1.67;1.57;;;;;;;17.51;45.27;98395.63;5133801;28;20203;-69
2022/06/02 07:37:02;;;;;;;1.73;1.63;;;;;;;17.26;46.67;98401.53;5133668;28;20229;-69
2022/06/02 07:39:47;;;;;;;2.60;1.37;;;;;;;17.51;47.49;98398.31;5133565;28;20245;-69
2022/06/02 07:42:32;;;;;;;2.63;1.53;;;;;;;17.85;46.39;98405.06;5134120;28;20202;-69
2022/06/02 07:45:05;;;;;;;2.50;1.77;;;;;;;17.84;46.12;98400.75;5134355;28;20183;-69
2022/06/02 07:47:37;;;;;;;2.30;1.40;;;;;;;17.95;45.31;98391.69;5133453;28;20199;-69
2022/06/02 07:50:19;;;;;;;4.03;1.30;;;;;;;17.72;44.88;98397.41;5133032;28;20293;-69
2022/06/02 07:52:54;;;;;;;2.27;1.60;;;;;;;17.95;45.43;98400.59;5132903;28;20238;-69
2022/06/02 07:55:32;;;;;;;3.07;1.43;;;;;;;18.17;46.32;98395.91;5133615;28;20187;-69
2022/06/02 07:58:21;;;;;;;2.60;1.60;;;;;;;17.94;45.39;98398.16;5133420;28;20226;-69
2022/06/02 08:01:20;;;;;;;3.83;1.60;;;;;;;17.37;46.37;98397.09;5134542;27;20198;-68
2022/06/02 08:04:13;;;;;;;3.50;1.40;;;;;;;17.94;46.75;98392.75;5094356;27;20199;-69
2022/06/02 08:07:11;;;;;;;4.70;1.50;;;;;;;18.05;46.33;98402.56;5137434;27;20183;-69
2022/06/02 08:09:50;;;;;;;3.47;1.40;;;;;;;18.04;45.27;98401.72;5137298;27;20195;-69
2022/06/02 08:12:35;;;;;;;3.00;1.83;;;;;;;17.56;46.09;98396.47;5137742;27;20202;-69
2022/06/02 08:15:11;;;;;;;3.83;1.40;;;;;;;18.00;46.04;98389.06;5136988;27;20307;-69
2022/06/02 08:17:44;;;;;;;1.60;1.50;;;;;;;18.31;46.30;98396.25;5136843;27;20257;-69
2022/06/02 08:21:16;;;;;;;3.43;1.57;;;;;;;18.40;45.76;98403.63;5137077;27;20191;-69
2022/06/02 08:24:08;;;;;;;2.40;1.50;;;;;;;18.62;44.93;98406.97;5137732;27;20221;-69
2022/06/02 08:26:34;;;;;;;2.53;1.30;;;;;;;18.90;45.07;98411.97;5137067;27;20622;-69
2022/06/02 08:29:14;;;;;;;2.83;1.60;;;;;;;18.67;44.52;98404.31;5136646;27;20230;-69
2022/06/02 08:32:11;;;;;;;3.33;1.70;;;;;;;18.76;44.65;98404.59;5136618;27;20190;-69
2022/06/02 08:35:06;;;;;;;3.13;1.80;;;;;;;18.77;42.95;98403.56;5136676;27;20191;-69
2022/06/02 08:37:38;;;;;;;2.37;1.47;;;;;;;18.32;43.90;98403.28;5135975;27;20761;-69
2022/06/02 08:40:23;;;;;;;2.17;1.43;;;;;;;18.54;44.05;98412.84;5136633;27;20198;-69
2022/06/02 08:43:25;;;;;;;2.30;1.50;;;;;;;18.31;43.52;98402.47;5136623;27;20209;-69
2022/06/02 08:46:05;;;;;;;1.70;1.60;;;;;;;18.89;44.54;98412.22;5135843;27;20217;-69
2022/06/02 08:48:50;;;;;;;2.50;1.53;;;;;;;18.89;43.95;98404.94;5117867;27;20576;-69
2022/06/02 08:51:42;;;;;;;3.57;1.60;;;;;;;19.13;42.83;98419.59;5135867;27;20648;-69
2022/06/02 08:54:45;;;;;;;4.67;1.70;;;;;;;18.35;44.04;98405.47;5117599;27;20210;-69
2022/06/02 08:57:50;;;;;;;1.93;1.60;;;;;;;18.50;44.55;98411.75;5135964;27;20233;-69
2022/06/02 09:00:44;;;;;;;2.93;2.00;;;;;;;18.70;43.64;98413.75;5118077;27;20191;-69
2022/06/02 09:03:18;;;;;;;2.33;1.60;;;;;;;19.10;43.59;98409.31;5117802;27;20191;-69
2022/06/02 09:06:02;;;;;;;4.57;1.60;;;;;;;19.11;43.54;98413.66;5135968;27;20195;-69
2022/06/02 09:08:47;;;;;;;3.33;1.60;;;;;;;19.42;43.73;98409.97;5117438;27;20222;-69
2022/06/02 09:11:27;;;;;;;3.30;1.60;;;;;;;19.85;43.65;98397.09;5135901;27;20193;-68
2022/06/02 09:14:30;;;;;;;2.37;1.67;;;;;;;19.31;42.26;98412.91;5135902;27;20268;-69
2022/06/02 09:17:21;;;;;;;2.23;1.33;;;;;;;19.31;42.90;98405.66;5135322;27;20218;-69
2022/06/02 09:20:12;;;;;;;3.03;1.50;;;;;;;19.49;42.89;98405.16;5117272;27;20194;-70
2022/06/02 09:22:54;;;;;;;3.90;1.30;;;;;;;20.24;42.17;98406.28;5135712;27;20198;-69
2022/06/02 09:25:36;;;;;;;1.40;1.13;;;;;;;20.08;41.50;98393.84;5135589;27;20210;-69
2022/06/02 09:28:15;;;;;;;2.97;1.40;;;;;;;20.33;41.89;98388.44;5135152;27;20228;-69
2022/06/02 09:31:02;;;;;;;3.17;1.50;;;;;;;20.69;41.79;98390.78;5117194;27;20268;-69
2022/06/02 09:33:37;;;;;;;3.13;1.33;;;;;;;20.76;40.90;98404.78;5135219;27;20187;-69
2022/06/02 09:36:41;;;;;;;3.33;1.80;;;;;;;21.04;40.57;98400.69;5135048;27;20186;-69
2022/06/02 09:39:20;;;;;;;1.90;1.37;;;;;;;21.07;40.63;98400.13;5135299;27;20226;-69
2022/06/02 09:42:24;;;;;;;1.90;1.53;;;;;;;21.06;39.74;98398.50;5134961;27;20190;-69
2022/06/02 09:45:17;;;;;;;4.00;1.53;;;;;;;20.71;40.22;98401.31;5135264;27;20210;-69
2022/06/02 09:48:14;;;;;;;1.30;1.20;;;;;;;20.91;39.47;98406.69;5119080;27;20226;-69
2022/06/02 09:50:59;;;;;;;2.40;1.60;;;;;;;21.00;39.71;98403.13;5135099;27;20285;-70
2022/06/02 09:53:57;;;;;;;5.37;1.40;;;;;;;20.63;39.47;98402.69;5116463;27;20214;-69
2022/06/02 09:56:51;;;;;;;1.60;1.43;;;;;;;20.93;39.04;98391.78;5134876;27;20252;-69
2022/06/02 09:59:34;;;;;;;1.60;1.50;;;;;;;20.89;39.68;98393.41;5134845;27;20227;-69
2022/06/02 10:02:41;;;;;;;2.73;1.40;;;;;;;20.92;39.01;98392.88;5116620;27;20247;-70
2022/06/02 10:05:30;;;;;;;3.00;1.40;;;;;;;21.05;39.31;98391.47;5134275;27;20231;-70
2022/06/02 10:08:16;;;;;;;2.70;1.60;;;;;;;21.31;39.08;98398.38;5134320;27;20293;-69
2022/06/02 10:10:57;;;;;;;1.53;1.30;;;;;;;20.95;39.87;98389.63;5118086;27;20197;-69
2022/06/02 10:13:33;;;;;;;4.87;1.33;;;;;;;21.53;41.24;98385.25;5134440;27;20633;-69
2022/06/02 10:16:30;;;;;;;3.23;1.43;;;;;;;21.40;38.25;98378.59;5134386;27;20191;-69
2022/06/02 10:19:37;;;;;;;3.03;1.60;;;;;;;20.07;41.19;98370.66;5134484;27;20293;-69
2022/06/02 10:22:20;;;;;;;1.90;1.43;;;;;;;20.10;41.38;98370.13;5119729;27;20202;-69
2022/06/02 10:25:20;;;;;;;1.80;1.47;;;;;;;21.02;40.62;98371.22;5133878;27;20183;-69
2022/06/02 10:27:59;;;;;;;4.23;1.40;;;;;;;21.46;40.06;98366.63;5133769;27;20604;-69
2022/06/02 10:30:52;;;;;;;1.77;1.50;;;;;;;21.48;40.20;98377.19;5134297;27;20182;-69
2022/06/02 10:33:40;;;;;;;2.30;1.20;;;;;;;21.61;39.14;98371.13;5116073;27;20186;-69
2022/06/02 10:36:21;;;;;;;5.20;1.47;;;;;;;21.64;38.52;98359.72;5134161;27;20202;-69
2022/06/02 10:39:42;;;;;;;3.53;2.03;;;;;;;21.44;38.52;98366.09;5133702;27;20230;-69
2022/06/02 10:42:23;;;;;;;1.37;1.20;;;;;;;21.82;38.90;98365.31;5031155;28;20549;-69
2022/06/02 10:45:18;;;;;;;1.50;1.40;;;;;;;21.89;38.70;98364.97;5133794;27;20573;-69
2022/06/02 10:48:04;;;;;;;2.93;1.50;;;;;;;22.07;38.39;98361.56;5134401;27;20222;-69
2022/06/02 10:51:13;;;;;;;3.17;1.30;;;;;;;22.03;38.55;98363.22;5134251;27;20195;-69
2022/06/02 10:54:10;;;;;;;2.20;1.33;;;;;;;20.83;38.71;98363.97;5133681;27;20211;-69
2022/06/02 10:56:56;;;;;;;3.27;1.20;;;;;;;21.22;39.19;98376.53;5133345;28;20206;-69
2022/06/02 10:59:43;;;;;;;2.50;1.30;;;;;;;20.87;39.17;98365.03;5133613;28;20230;-69
2022/06/02 11:02:21;;;;;;;2.07;1.33;;;;;;;21.34;38.25;98358.03;5116162;28;20194;-69
2022/06/02 11:05:06;;;;;;;2.17;1.40;;;;;;;21.68;39.38;98360.78;5134020;28;20198;-69
2022/06/02 11:08:11;;;;;;;3.53;1.33;;;;;;;21.82;38.60;98345.53;5133756;28;20761;-68
2022/06/02 11:11:02;;;;;;;4.50;1.30;;;;;;;22.33;37.84;98349.38;5133847;28;20186;-69
2022/06/02 11:14:02;;;;;;;2.63;1.40;;;;;;;22.19;38.07;98346.56;5117472;28;20194;-69
2022/06/02 11:16:47;;;;;;;2.23;1.63;;;;;;;21.95;37.59;98345.72;5134447;28;20193;-69
2022/06/02 11:19:35;;;;;;;2.10;1.50;;;;;;;21.27;40.03;98346.75;5133798;28;20245;-69
2022/06/02 11:22:20;;;;;;;1.37;1.10;;;;;;;22.00;39.46;98334.00;5133661;28;20198;-69
2022/06/02 11:25:33;;;;;;;3.17;1.33;;;;;;;22.12;39.41;98342.56;5133722;28;20190;-68
2022/06/02 11:28:30;;;;;;;2.43;1.20;;;;;;;22.22;38.24;98331.63;5134408;28;20230;-69
2022/06/02 11:31:27;;;;;;;3.20;1.50;;;;;;;22.18;37.89;98336.81;5117916;28;20214;-69
2022/06/02 11:33:54;;;;;;;2.00;1.10;;;;;;;22.16;37.49;98333.56;5133324;28;20637;-69
2022/06/02 11:36:26;;;;;;;4.00;1.27;;;;;;;22.23;38.07;98335.94;5135178;27;20206;-69
2022/06/02 11:39:17;;;;;;;2.13;1.30;;;;;;;22.50;37.88;98330.81;5137150;27;20680;-69
2022/06/02 11:42:04;;;;;;;3.37;1.40;;;;;;;22.55;37.50;98326.13;5121451;27;20202;-69
2022/06/02 11:44:50;;;;;;;2.78;1.33;;;;;;;22.07;37.44;98334.50;5137730;27;20197;-69
2022/06/02 11:47:28;;;;;;;2.67;1.50;;;;;;;22.26;36.90;98328.06;5119424;27;20187;-69
2022/06/02 11:50:24;;;;;;;1.30;1.20;;;;;;;22.12;37.93;98313.56;5119301;27;20186;-69
2022/06/02 11:53:10;;;;;;;1.75;1.20;;;;;;;22.39;38.66;98319.22;5103313;27;20202;-69
2022/06/02 11:56:07;;;;;;;1.57;1.13;;;;;;;21.31;38.62;98314.53;5137220;27;20193;-69
2022/06/02 11:58:57;;;;;;;1.50;1.17;;;;;;;22.13;39.32;98307.09;5136898;27;20226;-70
2022/06/02 12:01:30;;;;;;;2.05;1.10;;;;;;;22.53;37.56;98300.44;5136541;27;20186;-69
2022/06/02 12:04:11;;;;;;;4.22;1.25;;;;;;;22.54;39.57;98304.75;5136457;27;20207;-69
2022/06/02 12:07:06;;;;;;;2.90;1.42;;;;;;;22.66;37.95;98308.66;5136200;27;20535;-69
2022/06/02 12:10:03;;;;;;;1.33;1.23;;;;;;;22.80;38.25;98309.53;5137129;27;20271;-70
2022/06/02 12:12:41;;;;;;;2.88;1.20;;;;;;;22.70;37.62;98306.19;5137280;27;20183;-69
2022/06/02 12:15:37;;;;;;;4.93;1.33;;;;;;;22.77;37.81;98306.63;5137009;27;20197;-69
2022/06/02 12:18:04;;;;;;;3.03;1.13;;;;;;;22.87;36.40;98307.28;5136414;27;20242;-69
2022/06/02 12:21:18;;;;;;;3.28;1.30;;;;;;;22.73;37.79;98313.72;5136940;27;20544;-69
2022/06/02 12:24:21;;;;;;;2.10;1.38;;;;;;;23.17;37.73;98306.88;5136994;27;20198;-69
2022/06/02 12:27:12;;;;;;;3.45;1.20;;;;;;;23.17;37.81;98317.72;5136930;27;20197;-69
2022/06/02 12:30:07;;;;;;;2.78;1.30;;;;;;;22.87;37.92;98311.91;5118160;27;20187;-70
2022/06/02 12:32:48;;;;;;;3.80;1.80;;;;;;;22.95;36.77;98303.94;5094520;27;20206;-69
2022/06/02 12:35:28;;;;;;;4.60;1.60;;;;;;;22.74;37.41;98299.88;5136603;27;20206;-70
2022/06/02 12:38:10;;;;;;;4.35;1.40;;;;;;;22.52;36.89;98301.53;5135974;27;20233;-69
2022/06/02 12:41:05;;;;;;;2.15;1.40;;;;;;;22.91;37.60;98296.66;5136179;27;20206;-69
2022/06/02 12:43:47;;;;;;;3.58;1.50;;;;;;;22.40;38.21;98290.25;5118250;27;20530;-69
2022/06/02 12:46:33;;;;;;;1.75;1.30;;;;;;;22.87;37.63;98291.03;5135969;27;20202;-69
2022/06/02 12:49:19;;;;;;;2.97;1.27;;;;;;;22.68;37.22;98286.69;5118732;27;20221;-68
2022/06/02 12:52:12;;;;;;;7.55;1.80;;;;;;;23.03;37.31;98292.44;5118149;27;20187;-69
2022/06/02 12:55:08;;;;;;;11.45;1.80;;;;;;;23.06;37.13;98289.13;5135943;27;20210;-69
2022/06/02 12:57:53;;;;;;;2.47;1.30;;;;;;;23.31;37.53;98296.13;5136033;27;20233;-69
2022/06/02 13:01:10;;;;;;;4.75;1.50;;;;;;;23.29;38.38;98290.19;5136053;27;20266;-69
2022/06/02 13:03:57;;;;;;;1.50;1.20;;;;;;;23.35;37.38;98283.56;5079774;27;20202;-70
2022/06/02 13:06:47;;;;;;;2.13;1.15;;;;;;;22.63;37.77;98289.47;5136175;27;20187;-69
2022/06/02 13:09:36;;;;;;;4.35;1.50;;;;;;;23.14;36.88;98299.31;5135856;27;20225;-70
2022/06/02 13:12:27;;;;;;;2.67;1.20;;;;;;;23.35;37.52;98281.69;5119187;27;20195;-69